Time;durP1;ratioP1;P1;durP2;ratioP2;P2;SDS_P1;SDS_P2;PMS_P1;PMS_P2;Temp;Humidity;BMP_temperature;BMP_pressure;BME280_temperature;BME280_humidity;BME280_pressure;Samples;Min_cycle;Max_cycle;Signal;HPM_P1;HPM_P2
2022/03/17 00:00:13;;;;;;;29.40;18.05;;;9.60;99.90;;;;;;4754098;30;20451;-75
2022/03/17 00:02:39;;;;;;;30.33;17.40;;;9.50;99.90;;;;;;4769597;30;20051;-75
2022/03/17 00:05:10;;;;;;;29.98;17.70;;;9.70;99.90;;;;;;4769637;30;20052;-75
2022/03/17 00:07:40;;;;;;;29.00;17.08;;;9.50;99.90;;;;;;4753849;30;20070;-74
2022/03/17 00:10:08;;;;;;;30.20;18.75;;;9.50;99.90;;;;;;4769536;30;20090;-75
2022/03/17 00:12:33;;;;;;;32.70;18.33;;;9.40;99.90;;;;;;4768331;30;20432;-74
2022/03/17 00:14:59;;;;;;;30.15;18.27;;;9.40;99.90;;;;;;4768449;30;20049;-74
2022/03/17 00:17:26;;;;;;;30.98;19.23;;;9.40;99.90;;;;;;4769370;30;20044;-74
2022/03/17 00:19:53;;;;;;;32.15;18.13;;;9.40;99.90;;;;;;4769416;30;20055;-73
2022/03/17 00:22:19;;;;;;;31.58;18.58;;;9.60;99.90;;;;;;4769734;30;20155;-74
2022/03/17 00:24:46;;;;;;;31.52;18.35;;;9.40;99.90;;;;;;4753454;30;20125;-77
2022/03/17 00:27:12;;;;;;;31.20;18.40;;;9.30;99.90;;;;;;4769078;30;20072;-76
2022/03/17 00:29:39;;;;;;;27.70;17.75;;;9.40;99.90;;;;;;4769223;30;20063;-74
2022/03/17 00:32:07;;;;;;;28.10;17.95;;;9.30;99.90;;;;;;4769393;30;20505;-73
2022/03/17 00:37:23;;;;;;;29.75;17.75;;;9.30;99.90;;;;;;4769338;30;20052;-74
2022/03/17 00:39:49;;;;;;;32.03;19.73;;;9.30;99.90;;;;;;4769348;30;20083;-78
2022/03/17 00:42:15;;;;;;;35.95;19.35;;;9.20;99.90;;;;;;4768260;30;20139;-76
2022/03/17 00:44:41;;;;;;;32.95;18.60;;;9.30;99.90;;;;;;4768818;30;20048;-71
2022/03/17 00:47:07;;;;;;;31.55;18.70;;;9.20;99.90;;;;;;4767817;30;20056;-74
2022/03/17 00:49:33;;;;;;;31.42;18.50;;;9.40;99.90;;;;;;4768368;30;20066;-74
2022/03/17 00:51:59;;;;;;;32.38;18.77;;;9.20;99.90;;;;;;4769256;30;20039;-74
2022/03/17 00:54:26;;;;;;;31.45;17.60;;;9.50;99.90;;;;;;4769390;30;20128;-77
2022/03/17 00:56:52;;;;;;;31.48;19.92;;;9.20;99.90;;;;;;4768146;30;20059;-76
2022/03/17 00:59:18;;;;;;;31.02;18.38;;;9.20;99.90;;;;;;4768772;30;20467;-77
2022/03/17 01:01:44;;;;;;;32.88;18.45;;;9.20;99.90;;;;;;4769076;30;20134;-75
2022/03/17 01:04:09;;;;;;;30.17;17.55;;;9.50;99.90;;;;;;4769149;30;20052;-76
2022/03/17 01:06:35;;;;;;;31.60;18.65;;;9.20;99.90;;;;;;4769287;30;20055;-74
2022/03/17 01:09:00;;;;;;;31.45;18.45;;;9.20;99.90;;;;;;4769393;30;20055;-76
2022/03/17 01:11:26;;;;;;;33.65;18.42;;;9.20;99.90;;;;;;4772356;30;20055;-73
2022/03/17 01:13:52;;;;;;;34.03;19.92;;;9.20;99.90;;;;;;4756010;30;20121;-74
2022/03/17 01:16:17;;;;;;;33.38;19.80;;;9.20;99.90;;;;;;4771518;30;20048;-77
2022/03/17 01:18:43;;;;;;;32.60;18.67;;;9.20;99.90;;;;;;4772276;30;20048;-74
2022/03/17 01:21:09;;;;;;;34.13;19.20;;;9.70;99.90;;;;;;4756038;30;20404;-76
2022/03/17 01:23:35;;;;;;;32.50;19.17;;;9.20;99.90;;;;;;4772374;30;20077;-74
2022/03/17 01:26:01;;;;;;;33.05;18.77;;;9.30;99.90;;;;;;4770933;30;20071;-75
2022/03/17 01:28:26;;;;;;;33.25;18.90;;;9.20;99.90;;;;;;4771930;30;20410;-73
2022/03/17 01:30:53;;;;;;;30.15;18.52;;;9.50;99.90;;;;;;4755205;30;20062;-75
2022/03/17 01:33:19;;;;;;;29.98;18.40;;;9.50;99.90;;;;;;4771908;30;20052;-75
2022/03/17 01:35:45;;;;;;;32.20;19.98;;;9.40;99.90;;;;;;4755643;30;20056;-76
2022/03/17 01:38:10;;;;;;;30.27;18.23;;;9.30;99.90;;;;;;4770863;30;20193;-74
2022/03/17 01:40:36;;;;;;;28.40;17.67;;;9.30;99.90;;;;;;4755742;30;20631;-75
2022/03/17 01:43:02;;;;;;;30.55;17.13;;;9.30;99.90;;;;;;4771840;30;20453;-74
2022/03/17 01:45:28;;;;;;;30.33;17.38;;;9.30;99.90;;;;;;4771739;30;20043;-76
2022/03/17 01:47:54;;;;;;;34.35;19.45;;;9.70;99.90;;;;;;4770221;30;20059;-74
2022/03/17 01:50:20;;;;;;;34.33;21.13;;;9.40;99.90;;;;;;4771902;30;20052;-76
2022/03/17 01:52:46;;;;;;;30.17;18.60;;;9.40;99.90;;;;;;4771764;30;20090;-77
2022/03/17 01:55:17;;;;;;;31.15;18.70;;;9.50;99.90;;;;;;4771443;30;20052;-78
2022/03/17 01:57:43;;;;;;;30.90;17.75;;;9.40;99.90;;;;;;4771472;30;20094;-76
2022/03/17 02:00:13;;;;;;;31.00;17.40;;;9.40;99.90;;;;;;4771524;30;20401;-74
2022/03/17 02:02:47;;;;;;;36.53;19.15;;;9.40;99.90;;;;;;4754877;30;20047;-73
2022/03/17 02:05:13;;;;;;;34.83;19.58;;;9.40;99.90;;;;;;4771548;30;20390;-76
2022/03/17 02:07:42;;;;;;;36.00;18.73;;;9.50;99.90;;;;;;4771411;30;20044;-74
2022/03/17 02:10:08;;;;;;;34.17;19.05;;;9.40;99.90;;;;;;4770211;30;20056;-75
2022/03/17 02:15:18;;;;;;;29.92;18.40;;;9.40;99.90;;;;;;4771436;30;20064;-74
2022/03/17 02:17:43;;;;;;;29.48;18.77;;;9.30;99.90;;;;;;4771017;30;20128;-71
2022/03/17 02:20:12;;;;;;;28.40;17.85;;;9.40;99.90;;;;;;4770993;30;20093;-78
2022/03/17 02:22:47;;;;;;;30.13;18.23;;;9.40;99.90;;;;;;4770475;30;20139;-75
2022/03/17 02:27:59;;;;;;;33.25;19.08;;;9.40;99.90;;;;;;4770840;30;20087;-76
2022/03/17 02:30:26;;;;;;;31.60;17.75;;;9.40;99.90;;;;;;4755048;30;20075;-77
2022/03/17 02:33:01;;;;;;;32.33;18.65;;;9.40;99.90;;;;;;4740070;30;20432;-76
2022/03/17 02:35:28;;;;;;;34.80;19.55;;;9.30;99.90;;;;;;4770837;30;20062;-76
2022/03/17 02:37:55;;;;;;;29.92;17.52;;;9.30;99.90;;;;;;4754946;30;20101;-75
2022/03/17 02:40:21;;;;;;;31.02;18.92;;;9.80;99.90;;;;;;4754451;30;20060;-76
2022/03/17 02:42:47;;;;;;;30.88;18.75;;;9.30;99.90;;;;;;4770729;30;20057;-75
2022/03/17 02:45:12;;;;;;;31.10;18.45;;;9.40;99.90;;;;;;4770731;30;20051;-76
2022/03/17 02:47:39;;;;;;;35.13;20.10;;;9.20;99.90;;;;;;4769453;30;20056;-74
2022/03/17 02:50:07;;;;;;;34.55;18.35;;;9.20;99.90;;;;;;4754451;30;20048;-74
2022/03/17 02:52:33;;;;;;;30.90;19.10;;;9.30;99.90;;;;;;4770651;30;20124;-74
2022/03/17 02:54:59;;;;;;;35.20;19.15;;;9.30;99.90;;;;;;4770494;30;20545;-76
2022/03/17 02:57:25;;;;;;;34.70;20.50;;;9.30;99.90;;;;;;4754673;30;20055;-74
2022/03/17 02:59:52;;;;;;;29.85;17.90;;;9.30;99.90;;;;;;4770436;30;20493;-76
2022/03/17 03:02:18;;;;;;;31.27;18.17;;;9.30;99.90;;;;;;4770374;30;20224;-75
2022/03/17 03:04:44;;;;;;;33.85;19.02;;;9.30;99.90;;;;;;4770079;30;20144;-77
2022/03/17 03:07:10;;;;;;;31.02;18.80;;;9.40;99.90;;;;;;4770332;30;20081;-76
2022/03/17 03:09:36;;;;;;;34.08;19.30;;;9.70;99.90;;;;;;4770242;30;20075;-76
2022/03/17 03:12:02;;;;;;;31.85;19.25;;;9.50;99.90;;;;;;4739175;30;20060;-75
2022/03/17 03:14:29;;;;;;;28.25;17.30;;;9.40;99.90;;;;;;4770462;30;20095;-76
2022/03/17 03:16:54;;;;;;;34.60;18.33;;;9.40;99.90;;;;;;4770128;30;20524;-76
2022/03/17 03:19:20;;;;;;;30.95;18.33;;;9.40;99.90;;;;;;4770038;30;20051;-75
2022/03/17 03:21:46;;;;;;;33.08;19.30;;;9.40;99.90;;;;;;4769581;30;20059;-74
2022/03/17 03:24:12;;;;;;;31.45;18.50;;;9.40;99.90;;;;;;4769856;30;20136;-75
2022/03/17 03:26:40;;;;;;;30.55;19.15;;;9.40;99.90;;;;;;4769921;30;20067;-75
2022/03/17 03:32:00;;;;;;;30.55;18.52;;;9.40;99.90;;;;;;4714731;30;20068;-75
2022/03/17 03:34:28;;;;;;;29.25;17.77;;;9.40;99.90;;;;;;4715090;30;20061;-75
2022/03/17 03:39:38;;;;;;;28.98;17.42;;;9.70;99.90;;;;;;4700520;30;20115;-76
2022/03/17 03:42:05;;;;;;;30.08;18.75;;;9.40;99.90;;;;;;4715044;30;20472;-73
2022/03/17 03:44:31;;;;;;;33.97;18.50;;;9.40;99.90;;;;;;4700370;30;20053;-76
2022/03/17 03:46:57;;;;;;;33.70;20.15;;;9.40;99.90;;;;;;4700354;30;20063;-74
2022/03/17 03:49:23;;;;;;;33.47;20.20;;;9.60;99.90;;;;;;4715326;30;20057;-75
2022/03/17 03:51:49;;;;;;;33.10;18.02;;;9.60;99.90;;;;;;4714360;30;20144;-74
2022/03/17 03:54:18;;;;;;;32.72;19.10;;;9.50;99.90;;;;;;4715418;30;20144;-75
2022/03/17 03:56:48;;;;;;;32.35;19.70;;;9.40;99.90;;;;;;4715392;30;20141;-75
2022/03/17 03:59:22;;;;;;;30.35;16.92;;;9.50;99.90;;;;;;4701314;30;20446;-74
2022/03/17 04:01:49;;;;;;;33.17;18.83;;;9.40;99.90;;;;;;4715526;30;20410;-74
2022/03/17 04:04:19;;;;;;;34.63;19.90;;;9.40;99.90;;;;;;4714700;30;20085;-74
2022/03/17 04:06:46;;;;;;;32.88;19.60;;;9.50;99.90;;;;;;4714977;30;20061;-74
2022/03/17 04:09:14;;;;;;;29.73;17.40;;;9.50;99.90;;;;;;4733106;30;20064;-76
2022/03/17 04:11:40;;;;;;;30.77;18.90;;;9.50;99.90;;;;;;4769394;30;20048;-76
2022/03/17 04:14:07;;;;;;;28.35;17.15;;;9.90;99.90;;;;;;4769553;30;20409;-75
2022/03/17 04:16:33;;;;;;;29.48;18.38;;;9.60;99.90;;;;;;4753418;30;20521;-76
2022/03/17 04:18:59;;;;;;;29.92;17.80;;;9.60;99.90;;;;;;4769298;30;20129;-74
2022/03/17 04:21:25;;;;;;;31.67;18.83;;;9.60;99.90;;;;;;4769499;30;20064;-74
2022/03/17 04:23:50;;;;;;;29.75;17.58;;;9.60;99.90;;;;;;4768305;30;20090;-74
2022/03/17 04:26:16;;;;;;;31.85;17.95;;;9.70;99.90;;;;;;4769779;30;20049;-75
2022/03/17 04:28:42;;;;;;;30.85;17.92;;;9.70;99.90;;;;;;4753321;30;20087;-75
2022/03/17 04:31:08;;;;;;;31.25;20.02;;;9.70;99.90;;;;;;4769817;30;20568;-75
2022/03/17 04:33:34;;;;;;;30.67;18.17;;;9.70;99.90;;;;;;4753338;30;20052;-74
2022/03/17 04:36:02;;;;;;;27.65;17.90;;;9.70;99.90;;;;;;4769459;30;20073;-74
2022/03/17 04:38:27;;;;;;;30.33;18.40;;;9.80;99.90;;;;;;4769384;30;20044;-75
2022/03/17 04:40:53;;;;;;;31.58;18.83;;;9.80;99.90;;;;;;4753014;30;20133;-74
2022/03/17 04:43:20;;;;;;;31.52;18.00;;;9.80;99.90;;;;;;4768017;30;20504;-75
2022/03/17 04:45:46;;;;;;;32.53;19.35;;;9.90;99.90;;;;;;4771708;30;20052;-76
2022/03/17 04:48:13;;;;;;;28.77;17.80;;;9.90;99.90;;;;;;4756906;30;20059;-74
2022/03/17 04:50:39;;;;;;;31.58;18.48;;;9.80;99.90;;;;;;4772588;30;20048;-75
2022/03/17 04:56:12;;;;;;;30.10;17.63;;;9.90;99.90;;;;;;4734718;30;20057;-73
2022/03/17 04:58:40;;;;;;;32.05;19.85;;;9.80;99.90;;;;;;4735363;30;20065;-75
2022/03/17 05:01:07;;;;;;;30.88;19.30;;;10.00;99.90;;;;;;4734825;30;20106;-73
2022/03/17 05:03:34;;;;;;;34.47;20.33;;;10.10;99.90;;;;;;4734969;30;20061;-74
2022/03/17 05:06:01;;;;;;;32.55;18.88;;;9.90;99.90;;;;;;4720296;30;20056;-75
2022/03/17 05:08:26;;;;;;;35.28;20.13;;;9.90;99.90;;;;;;4720340;30;20090;-73
2022/03/17 05:10:52;;;;;;;32.70;20.52;;;10.10;99.90;;;;;;4734491;30;20551;-75
2022/03/17 05:13:25;;;;;;;31.73;18.35;;;10.00;99.90;;;;;;4734699;30;20057;-75
2022/03/17 05:15:51;;;;;;;35.58;20.48;;;10.30;99.90;;;;;;4720148;30;20070;-74
2022/03/17 05:18:18;;;;;;;31.90;18.15;;;9.90;99.90;;;;;;4734705;30;20056;-74
2022/03/17 05:20:44;;;;;;;31.65;19.15;;;9.90;99.90;;;;;;4734775;30;20056;-75
2022/03/17 05:23:13;;;;;;;37.25;20.83;;;9.90;99.90;;;;;;4734855;30;20089;-75
2022/03/17 05:25:39;;;;;;;34.28;20.83;;;10.00;99.90;;;;;;4734627;30;20064;-76
2022/03/17 05:28:08;;;;;;;40.03;22.15;;;9.70;99.90;;;;;;4733907;30;20103;-71
2022/03/17 05:30:34;;;;;;;37.38;23.80;;;9.70;99.90;;;;;;4760698;30;20101;-73
2022/03/17 05:33:01;;;;;;;34.08;18.30;;;9.40;99.90;;;;;;4755930;30;20048;-73
2022/03/17 05:35:26;;;;;;;42.00;20.83;;;9.60;99.90;;;;;;4756119;30;20067;-73
2022/03/17 05:37:53;;;;;;;40.13;21.77;;;9.20;99.90;;;;;;4771848;30;20053;-74
2022/03/17 05:40:19;;;;;;;37.35;20.73;;;9.30;99.90;;;;;;4771877;30;20505;-73
2022/03/17 05:42:46;;;;;;;41.08;21.42;;;9.00;99.90;;;;;;4771246;30;20044;-73
2022/03/17 05:45:14;;;;;;;40.67;21.95;;;9.40;99.90;;;;;;4771669;30;20131;-74
2022/03/17 05:47:42;;;;;;;39.22;21.58;;;8.90;99.90;;;;;;4771873;30;20463;-78
2022/03/17 05:50:11;;;;;;;42.10;23.35;;;8.90;99.90;;;;;;4772008;30;20060;-74
2022/03/17 05:52:38;;;;;;;41.40;22.55;;;8.90;99.90;;;;;;4770780;30;20385;-73
2022/03/17 05:55:09;;;;;;;47.47;23.67;;;8.80;99.90;;;;;;4755424;30;20090;-73
2022/03/17 05:57:36;;;;;;;42.97;23.17;;;8.80;99.90;;;;;;4770981;30;20047;-75
2022/03/17 06:00:04;;;;;;;33.75;13.88;;;8.80;99.90;;;;;;4771275;30;20071;-75
2022/03/17 06:02:30;;;;;;;30.65;14.65;;;8.80;99.90;;;;;;4771624;30;20409;-73
2022/03/17 06:04:56;;;;;;;38.60;16.50;;;8.90;99.90;;;;;;4755062;30;20063;-72
2022/03/17 06:07:21;;;;;;;30.83;13.18;;;9.00;99.90;;;;;;4771298;30;20519;-73
2022/03/17 06:09:47;;;;;;;24.40;10.70;;;8.80;99.90;;;;;;4771285;30;20051;-70
2022/03/17 06:12:15;;;;;;;18.60;7.20;;;8.80;99.90;;;;;;4771137;30;20056;-72
2022/03/17 06:14:42;;;;;;;10.52;4.43;;;8.70;99.90;;;;;;4754515;30;20067;-74
2022/03/17 06:17:09;;;;;;;10.85;4.15;;;8.50;99.90;;;;;;4771302;30;20056;-72
2022/03/17 06:19:35;;;;;;;9.82;4.93;;;8.40;99.90;;;;;;4755155;30;20055;-72
2022/03/17 06:22:00;;;;;;;8.95;3.78;;;8.50;99.90;;;;;;4771279;30;20421;-72
2022/03/17 06:24:26;;;;;;;10.68;3.78;;;8.10;99.90;;;;;;4771042;30;20122;-73
2022/03/17 06:26:52;;;;;;;9.80;3.90;;;8.10;99.90;;;;;;4754990;30;20063;-72
2022/03/17 06:29:18;;;;;;;10.40;3.78;;;8.00;99.90;;;;;;4770383;30;20578;-81
2022/03/17 06:31:43;;;;;;;10.95;4.05;;;8.00;99.90;;;;;;4762903;30;20450;-73
2022/03/17 06:34:09;;;;;;;11.80;4.82;;;8.00;99.90;;;;;;4786237;30;20050;-73
2022/03/17 06:36:35;;;;;;;12.27;4.78;;;7.90;99.90;;;;;;4771436;30;20051;-71
2022/03/17 06:39:00;;;;;;;13.27;5.28;;;7.90;99.90;;;;;;4787936;30;20507;-72
2022/03/17 06:41:26;;;;;;;15.23;5.80;;;7.90;99.90;;;;;;4771366;30;20059;-74
2022/03/17 06:43:52;;;;;;;14.70;5.28;;;7.90;99.90;;;;;;4788115;29;20467;-75
2022/03/17 06:46:17;;;;;;;14.48;4.43;;;7.90;99.90;;;;;;4796797;29;20058;-77
2022/03/17 06:48:43;;;;;;;10.27;4.30;;;7.90;99.90;;;;;;4790048;29;20060;-74
2022/03/17 06:51:08;;;;;;;9.70;3.22;;;8.10;99.90;;;;;;4790169;29;20412;-75
2022/03/17 06:53:34;;;;;;;13.98;4.05;;;7.90;99.90;;;;;;4804872;29;20081;-76
2022/03/17 06:56:00;;;;;;;10.23;4.00;;;7.80;99.90;;;;;;4774226;29;20466;-76
2022/03/17 06:58:25;;;;;;;11.05;4.72;;;7.80;99.90;;;;;;4804830;29;20050;-76
2022/03/17 07:00:51;;;;;;;8.88;3.28;;;7.80;99.90;;;;;;4805045;29;20051;-76
2022/03/17 07:03:17;;;;;;;12.70;4.30;;;7.80;99.90;;;;;;4805399;29;20146;-74
2022/03/17 07:05:42;;;;;;;11.30;4.10;;;7.80;99.90;;;;;;4804025;29;20496;-76
2022/03/17 07:08:08;;;;;;;12.27;3.53;;;7.80;99.90;;;;;;4804665;29;20090;-75
2022/03/17 07:10:33;;;;;;;9.18;4.05;;;7.80;99.90;;;;;;4789740;29;20043;-74
2022/03/17 07:12:59;;;;;;;10.68;3.50;;;8.20;99.90;;;;;;4806406;29;20050;-75
2022/03/17 07:15:25;;;;;;;9.88;3.17;;;7.80;99.90;;;;;;4805155;29;20428;-77
2022/03/17 07:17:50;;;;;;;10.48;3.05;;;7.80;99.90;;;;;;4804566;29;20093;-76
2022/03/17 07:20:19;;;;;;;6.38;2.65;;;7.80;99.90;;;;;;4804692;29;20398;-77
2022/03/17 07:22:50;;;;;;;10.73;2.97;;;7.80;99.90;;;;;;4805282;29;20531;-76
2022/03/17 07:25:17;;;;;;;8.80;3.33;;;7.80;99.90;;;;;;4805367;29;20063;-76
2022/03/17 07:27:47;;;;;;;11.20;3.25;;;7.80;99.90;;;;;;4799871;29;20103;-82
2022/03/17 07:30:22;;;;;;;9.52;3.20;;;7.80;99.90;;;;;;4786207;30;20104;-80
2022/03/17 07:32:52;;;;;;;7.40;2.90;;;7.70;99.90;;;;;;4787108;30;20055;-73
2022/03/17 07:35:18;;;;;;;13.45;3.50;;;7.80;99.90;;;;;;4786407;30;20048;-73
2022/03/17 07:37:44;;;;;;;10.73;3.63;;;7.70;99.90;;;;;;4786491;30;20055;-75
2022/03/17 07:40:10;;;;;;;11.25;3.13;;;7.70;99.90;;;;;;4786841;30;20044;-75
2022/03/17 07:42:36;;;;;;;6.10;2.17;;;7.70;99.90;;;;;;4786766;30;20389;-79
2022/03/17 07:45:03;;;;;;;9.45;2.85;;;7.60;99.90;;;;;;4787165;30;20085;-79
2022/03/17 07:47:29;;;;;;;5.45;2.50;;;7.60;99.90;;;;;;4784449;30;20063;-80
2022/03/17 07:49:54;;;;;;;8.05;2.40;;;7.60;99.90;;;;;;4770612;30;20057;-77
2022/03/17 07:52:20;;;;;;;8.85;2.58;;;7.60;99.90;;;;;;4786508;30;20100;-77
2022/03/17 07:54:46;;;;;;;7.22;2.30;;;7.70;99.90;;;;;;4786741;30;20043;-80
2022/03/17 07:57:12;;;;;;;6.35;1.90;;;8.10;99.90;;;;;;4786620;30;20049;-78
2022/03/17 07:59:39;;;;;;;7.50;1.75;;;7.70;99.90;;;;;;4785204;30;20496;-77
2022/03/17 08:02:05;;;;;;;12.38;2.28;;;7.70;99.90;;;;;;4786685;30;20054;-76
2022/03/17 08:04:32;;;;;;;5.47;1.20;;;7.70;99.90;;;;;;4784927;29;20059;-78
2022/03/17 08:07:00;;;;;;;4.68;1.48;;;7.70;99.90;;;;;;4786470;30;20075;-75
2022/03/17 08:09:27;;;;;;;8.07;1.75;;;7.60;99.90;;;;;;4786437;30;20115;-73
2022/03/17 08:11:53;;;;;;;7.07;1.48;;;7.60;99.90;;;;;;4786128;30;20047;-74
2022/03/17 08:14:18;;;;;;;8.02;1.35;;;7.60;99.90;;;;;;4786502;30;20055;-74
2022/03/17 08:16:44;;;;;;;8.57;1.77;;;7.60;99.90;;;;;;4785988;30;20055;-72
2022/03/17 08:19:11;;;;;;;6.25;1.58;;;7.60;99.90;;;;;;4787847;29;20539;-73
2022/03/17 08:21:40;;;;;;;6.65;1.65;;;7.60;99.90;;;;;;4790215;30;20457;-74
2022/03/17 08:24:06;;;;;;;8.82;1.70;;;7.70;99.90;;;;;;4789772;30;20039;-73
2022/03/17 08:26:33;;;;;;;5.43;1.60;;;7.60;99.90;;;;;;4790072;29;20099;-74
2022/03/17 08:28:59;;;;;;;5.30;1.58;;;7.90;99.90;;;;;;4789732;30;20584;-74
2022/03/17 08:31:25;;;;;;;6.82;0.98;;;7.50;99.90;;;;;;4789767;30;20058;-75
2022/03/17 08:33:51;;;;;;;2.97;1.10;;;7.50;99.90;;;;;;4789833;30;20493;-73
2022/03/17 08:36:17;;;;;;;8.77;1.10;;;7.60;99.90;;;;;;4773611;30;20070;-73
2022/03/17 08:38:42;;;;;;;8.13;1.23;;;7.60;99.90;;;;;;4790713;30;20486;-74
2022/03/17 08:41:08;;;;;;;2.40;0.80;;;7.60;99.90;;;;;;4789565;30;20059;-74
2022/03/17 08:43:33;;;;;;;5.47;0.88;;;7.60;99.90;;;;;;4791031;30;20051;-74
2022/03/17 08:51:28;;;;;;;2.55;0.65;;;7.70;99.90;;;;;;4784080;30;20167;-73
2022/03/17 08:53:56;;;;;;;2.60;0.57;;;7.70;99.90;;;;;;4788753;30;20079;-74
2022/03/17 08:56:22;;;;;;;5.03;0.85;;;7.70;99.90;;;;;;4773141;30;20055;-80
2022/03/17 08:58:47;;;;;;;1.55;0.80;;;7.70;99.90;;;;;;4772716;30;20074;-78
2022/03/17 09:01:13;;;;;;;3.25;0.65;;;7.70;99.90;;;;;;4772807;30;20063;-77
2022/03/17 09:03:39;;;;;;;2.42;0.57;;;7.70;99.90;;;;;;4765105;30;20506;-81
2022/03/17 09:06:04;;;;;;;1.33;0.60;;;7.90;99.90;;;;;;4782320;30;20046;-82
2022/03/17 09:08:30;;;;;;;3.83;1.00;;;7.80;99.90;;;;;;4779842;30;20044;-83
2022/03/17 09:10:57;;;;;;;6.70;1.00;;;8.00;99.90;;;;;;4778949;30;20032;-81
2022/03/17 09:13:26;;;;;;;3.42;0.75;;;7.80;99.90;;;;;;4765418;30;20056;-80
2022/03/17 09:15:53;;;;;;;10.20;1.25;;;7.70;99.90;;;;;;4764689;30;20051;-79
2022/03/17 09:18:21;;;;;;;4.72;1.27;;;7.70;99.90;;;;;;4781290;30;20130;-77
2022/03/17 09:20:47;;;;;;;4.13;2.30;;;7.80;99.90;;;;;;4763229;30;20094;-79
2022/03/17 09:23:13;;;;;;;13.30;2.15;;;7.80;99.90;;;;;;4778709;29;20043;-71
2022/03/17 09:25:39;;;;;;;9.18;1.23;;;7.90;99.90;;;;;;4780087;30;20112;-75
2022/03/17 09:28:05;;;;;;;11.00;1.27;;;7.80;99.90;;;;;;4763816;30;20108;-79
2022/03/17 09:30:32;;;;;;;7.13;0.98;;;7.80;99.90;;;;;;4779145;30;20071;-78
2022/03/17 09:32:59;;;;;;;6.60;1.58;;;7.80;99.90;;;;;;4756097;30;20295;-76
2022/03/17 09:35:26;;;;;;;10.93;1.60;;;7.80;99.90;;;;;;4772935;30;20126;-77
2022/03/17 09:37:51;;;;;;;8.50;1.75;;;7.70;99.90;;;;;;4764070;30;20122;-76
2022/03/17 09:40:17;;;;;;;3.42;1.05;;;7.70;99.90;;;;;;4779667;30;20184;-76
2022/03/17 09:42:43;;;;;;;4.55;0.70;;;7.80;99.90;;;;;;4765092;30;20093;-78
2022/03/17 09:45:20;;;;;;;5.85;0.90;;;7.70;99.90;;;;;;4772320;30;20086;-80
2022/03/17 09:47:46;;;;;;;7.70;0.80;;;7.70;99.90;;;;;;4783004;29;20044;-81
2022/03/17 09:50:16;;;;;;;7.90;1.40;;;7.90;99.90;;;;;;4780364;29;20109;-79
2022/03/17 09:52:44;;;;;;;5.85;0.90;;;7.90;99.90;;;;;;4762853;30;20055;-76
2022/03/17 09:55:11;;;;;;;7.97;1.27;;;8.00;99.90;;;;;;4780661;30;20055;-76
2022/03/17 09:57:41;;;;;;;3.67;0.93;;;8.10;99.90;;;;;;4778979;29;20050;-74
2022/03/17 10:00:09;;;;;;;4.97;0.63;;;8.70;99.90;;;;;;4764286;30;20138;-77
2022/03/17 10:02:34;;;;;;;7.80;1.08;;;8.20;99.90;;;;;;4779849;30;20091;-77
2022/03/17 10:05:01;;;;;;;5.25;1.30;;;8.10;99.90;;;;;;4763497;30;20051;-74
2022/03/17 10:07:27;;;;;;;7.28;1.33;;;8.10;99.90;;;;;;4770481;30;20216;-76
2022/03/17 10:09:52;;;;;;;9.48;0.93;;;8.00;99.90;;;;;;4760814;30;20241;-73
2022/03/17 10:12:23;;;;;;;5.00;0.60;;;8.00;99.90;;;;;;4763703;30;20078;-75
2022/03/17 10:14:53;;;;;;;8.98;1.08;;;8.00;99.90;;;;;;4779422;30;20447;-75
2022/03/17 10:17:33;;;;;;;9.98;1.45;;;8.00;99.90;;;;;;4783611;30;20505;-75
2022/03/17 10:20:22;;;;;;;4.97;1.08;;;8.00;99.90;;;;;;4788230;29;20090;-75
2022/03/17 10:22:56;;;;;;;9.68;1.23;;;8.10;99.90;;;;;;4787073;30;20463;-75
2022/03/17 10:25:27;;;;;;;6.82;1.00;;;8.00;99.90;;;;;;4771706;30;20058;-75
2022/03/17 10:27:57;;;;;;;3.30;1.20;;;8.10;99.90;;;;;;4787852;30;20070;-79
2022/03/17 10:30:34;;;;;;;1.67;0.73;;;8.50;99.90;;;;;;4754209;30;20090;-73
2022/03/17 10:33:13;;;;;;;3.35;1.05;;;8.10;99.90;;;;;;4785375;30;20413;-75
2022/03/17 10:35:45;;;;;;;5.22;1.25;;;8.20;99.90;;;;;;4789987;30;20063;-74
2022/03/17 10:38:13;;;;;;;6.63;0.90;;;8.30;99.90;;;;;;4771459;30;20067;-73
2022/03/17 10:40:39;;;;;;;3.60;0.80;;;8.30;99.90;;;;;;4787786;30;20416;-71
2022/03/17 10:43:20;;;;;;;4.97;1.05;;;8.50;99.90;;;;;;4787717;29;20499;-74
2022/03/17 10:45:46;;;;;;;4.68;1.00;;;8.60;99.90;;;;;;4792631;30;20457;-80
2022/03/17 10:48:12;;;;;;;8.13;1.33;;;8.80;99.90;;;;;;4804484;30;20055;-79
2022/03/17 10:50:43;;;;;;;9.20;1.10;;;9.00;99.90;;;;;;4773963;30;20051;-76
2022/03/17 10:53:10;;;;;;;7.25;1.15;;;9.10;99.90;;;;;;4789648;30;20047;-78
2022/03/17 10:55:37;;;;;;;6.50;1.35;;;9.30;99.90;;;;;;4787932;29;20413;-78
2022/03/17 10:58:15;;;;;;;11.00;1.00;;;9.30;99.90;;;;;;4788543;30;20079;-78
2022/03/17 11:01:07;;;;;;;6.43;1.00;;;9.40;99.90;;;;;;4788869;29;20044;-80
2022/03/17 11:03:43;;;;;;;6.18;1.38;;;9.50;99.90;;;;;;5148851;27;1266467;-76
2022/03/17 11:06:09;;;;;;;9.80;1.45;;;9.60;99.90;;;;;;5136285;27;20074;-76
2022/03/17 11:08:37;;;;;;;9.52;0.82;;;9.60;99.90;;;;;;5170978;27;20085;-76
2022/03/17 11:11:03;;;;;;;7.82;1.20;;;9.70;99.90;;;;;;5152883;27;20050;-76
2022/03/17 11:13:31;;;;;;;4.63;0.80;;;9.80;99.90;;;;;;5170896;27;20087;-74
2022/03/17 11:16:05;;;;;;;7.82;0.90;;;9.80;99.90;;;;;;5171525;27;20049;-73
2022/03/17 11:18:34;;;;;;;3.05;0.90;;;10.00;99.90;;;;;;5171434;27;20134;-77
2022/03/17 11:21:33;;;;;;;6.47;1.00;;;10.10;99.90;;;;;;5171154;27;20054;-75
2022/03/17 11:24:05;;;;;;;4.90;0.90;;;10.20;99.90;;;;;;5052204;28;20061;-77
2022/03/17 11:26:38;;;;;;;1.85;0.50;;;10.10;99.90;;;;;;5065199;28;20532;-75
2022/03/17 11:29:09;;;;;;;2.75;0.85;;;10.20;99.90;;;;;;5066378;28;20047;-74
2022/03/17 11:32:03;;;;;;;9.40;0.88;;;10.30;99.90;;;;;;5049043;28;20080;-78
2022/03/17 11:34:47;;;;;;;5.82;1.00;;;10.60;99.90;;;;;;5033039;28;20138;-74
2022/03/17 11:37:15;;;;;;;2.63;0.68;;;10.70;99.90;;;;;;5033148;28;20064;-76
2022/03/17 11:40:09;;;;;;;7.72;1.58;;;10.70;99.90;;;;;;5049326;28;20381;-75
2022/03/17 11:42:42;;;;;;;5.78;1.00;;;10.90;99.90;;;;;;5064878;28;20120;-76
2022/03/17 11:45:09;;;;;;;7.25;1.13;;;11.30;99.90;;;;;;5064991;28;20036;-77
2022/03/17 11:47:42;;;;;;;8.52;1.27;;;11.40;99.90;;;;;;5048411;28;20187;-77
2022/03/17 11:50:40;;;;;;;11.85;1.95;;;11.40;99.90;;;;;;5032044;28;20048;-76
2022/03/17 11:53:14;;;;;;;10.75;1.00;;;11.40;99.90;;;;;;5049454;28;20062;-77
2022/03/17 11:55:42;;;;;;;4.95;1.10;;;11.50;99.90;;;;;;5064678;28;20420;-72
2022/03/17 11:58:30;;;;;;;7.82;1.10;;;11.60;99.90;;;;;;5049326;28;20049;-73
2022/03/17 12:01:01;;;;;;;6.10;0.82;;;11.80;99.90;;;;;;5170279;27;20058;-71
2022/03/17 12:03:29;;;;;;;7.97;0.97;;;12.00;99.90;;;;;;5169917;27;20050;-70
2022/03/17 12:06:15;;;;;;;10.25;1.80;;;11.90;99.90;;;;;;5152005;27;20038;-69
2022/03/17 12:08:47;;;;;;;6.32;1.05;;;11.70;99.90;;;;;;5151119;27;20896;-78
2022/03/17 12:11:14;;;;;;;9.32;1.08;;;11.50;99.90;;;;;;5170370;27;20077;-78
2022/03/17 12:14:18;;;;;;;6.85;1.10;;;11.30;99.90;;;;;;5144565;27;20035;-67
2022/03/17 12:16:51;;;;;;;4.55;0.88;;;11.10;99.90;;;;;;5156252;27;20504;-78
2022/03/17 12:19:27;;;;;;;4.63;0.82;;;11.10;99.90;;;;;;5155756;27;20058;-69
2022/03/17 12:22:01;;;;;;;8.60;1.65;;;11.10;99.90;;;;;;5156184;27;20047;-68
2022/03/17 12:24:48;;;;;;;6.97;1.33;;;11.00;99.90;;;;;;5157310;27;20047;-69
2022/03/17 12:27:40;;;;;;;4.55;0.98;;;11.00;99.90;;;;;;5157029;27;20126;-79
2022/03/17 12:30:15;;;;;;;5.53;1.40;;;11.10;99.90;;;;;;5151681;27;20109;-76
2022/03/17 12:32:49;;;;;;;6.03;1.10;;;11.30;99.90;;;;;;5156990;27;20047;-79
2022/03/17 12:35:17;;;;;;;4.10;0.68;;;11.40;99.90;;;;;;5156892;27;20042;-74
2022/03/17 12:37:44;;;;;;;5.20;1.08;;;11.60;99.90;;;;;;5137642;27;20066;-76
2022/03/17 12:40:20;;;;;;;3.83;0.95;;;11.60;99.90;;;;;;5154882;27;20066;-76
2022/03/17 12:42:48;;;;;;;4.25;1.00;;;11.50;99.90;;;;;;5136205;27;20047;-72
2022/03/17 12:45:24;;;;;;;4.60;0.93;;;11.30;99.90;;;;;;5137068;27;20053;-75
2022/03/17 12:47:56;;;;;;;3.65;1.17;;;11.30;99.90;;;;;;5136513;27;20039;-77
2022/03/17 12:50:23;;;;;;;5.57;1.00;;;11.30;99.90;;;;;;5156019;27;20050;-79
2022/03/17 12:52:49;;;;;;;9.50;1.38;;;11.50;99.90;;;;;;5155104;27;20042;-75
2022/03/17 12:55:18;;;;;;;7.57;1.40;;;11.70;99.90;;;;;;5136857;27;20050;-77
2022/03/17 12:57:47;;;;;;;3.15;0.80;;;11.90;99.90;;;;;;5155419;27;20051;-74
2022/03/17 13:00:15;;;;;;;7.22;1.30;;;11.60;99.90;;;;;;5155124;27;20546;-74
2022/03/17 13:02:48;;;;;;;6.32;0.88;;;11.40;99.90;;;;;;5136557;27;20062;-74
2022/03/17 13:08:00;;;;;;;4.60;1.05;;;11.50;99.90;;;;;;5155351;27;20138;-76
2022/03/17 13:10:27;;;;;;;7.28;0.90;;;11.30;99.90;;;;;;5136417;27;20049;-75
2022/03/17 13:15:43;;;;;;;11.32;1.50;;;11.40;99.90;;;;;;5152484;27;20038;-79
2022/03/17 13:18:11;;;;;;;8.35;1.40;;;11.40;99.90;;;;;;5135371;27;20035;-72